Captain Cook, HI

5:00 PM HST on September 25, 2016 (GMT -1000)
Captain Cook | | Change Station

Elev 915 ft 19.31 °N, 155.88 °W | Updated 35 seconds ago

Partly Cloudy
Partly Cloudy
79.0 °F
Feels Like 82 °F
N
0.0
Wind Variable Wind from North
Gusts 6.0 mph

Today
High -- | Low -- °F
--% Chance of Precip.
Yesterday
High -- | Low -- °F
Precip. -- in
Pressure 29.95 in
Visibility 10.0 miles
Clouds Few 6000 ft
Heat Index 82 °F
Dew Point 71 °F
Humidity 76%
Rainfall 0.01 in
Snow Depth Not available.
6:13 AM 6:16 PM
Waning Crescent, 22% visible
METAR PHKO 260253Z VRB04KT 10SM FEW060 31/18 A2995 RMK AO2 SLP141 T03060183 55005 $
Pressure 29.95 in
Visibility 10.0 miles
Clouds Few 6000 ft
Heat Index 82 °F
Dew Point 71 °F
Humidity 76%
Rainfall 0.01 in
Snow Depth Not available.
6:13 AM 6:16 PM
Waning Crescent, 22% visible
METAR PHKO 260253Z VRB04KT 10SM FEW060 31/18 A2995 RMK AO2 SLP141 T03060183 55005 $

10-Day Weather Forecast

Almanac

Astronomy

Sep. 25, 2016 Rise Set
Actual Time
Civil Twilight
Nautical Twilight
Astronomical Twilight
Moon
Length of Visible Light
Length of Day
Tomorrow will be .
, % of the Moon is Illuminated

Today's Extremes

State Highs State Lows

Community

WunderPhotos

Upload Photos

1,941,826 photos uploaded!

WunderBlog® & News

Nearby

Air Quality

  Air Quality AQ Index Pollutant
Not available.

Snow Depth

Station Depth Elevation

Earthquake Activity

City Distance Mag. Time & Date
Minimum magnitude displayed is 2.5.

Coastal Water Temperatures

Place Temperature

Stations

Nearby Weather Stations

Station Location Temp. Windchill Dew Point Humidity Wind Precip. Elev Updated Type
                   

Watches & Warnings

There are currently no watches in effect.